Portada
METAR-TAF:

METAR-TAF

Aeroports :

Simla, Índia

latitud: 31-04-54N, longitud: 77-04-05E, altitud: 1546 m

Observació

L'informe es va fer fa 3 hores i 58 minuts, a les 03:00 UTC
Vent calma
Temperatura 15°C
Humitat 59%
Pressió 1024 hPa
Visibilitat: 6000 m
Núvols disperses a una alçada de 6000 ft

METAR: VISM 290300Z 00000KT 6000 SCT060 15/07 Q1024

Hora: 12:28 (06:58 UTC)

Pronòstic

L'informe es va fer fa 1 hora i 58 minuts, a les 05:00 UTC
Pronòstic vàlid del 29 a les 06 UTC al 29 a les 15 UTC
Vent 2 kt amb direcció variable
Visibilitat: 6000 m
Escasses núvols a una alçada de 2000 ft
Núvols disperses a una alçada de 6000 ft
Evolucionant progressivament
l' 29 a les 12 UTC al 29 a les 13 UTC
Vent 6 kt del Est/Nord-Est
Visibilitat: 3000 m
calitja

TAF: VISM 290500Z 2906/2915 VRB02KT 6000 FEW020 SCT060 BECMG 2912/2913 07006KT 3000 HZ

Observacions i pronòstics meteorològics de més de 4000 aeroports (METAR i TAF).

Les estacions disponibles són els punts grocs i vermells al mapa.

Posi el ratolí al punt desitjat per veure el nom de l'estació.

Feu clic per veure les observacions i els pronòstics meteorològics.

Per canviar el mapa: feu clic els botons verds amb una creu de color negre per apropar; al botó verd amb un guió per allunyar la imatge; o en les fletxes verdes per a mapes adjacents.


METAR-TAF: